sensor_id;sensor_type;location;lat;lon;timestamp;P1;durP1;ratioP1;P2;durP2;ratioP2
67274;SDS011;55463;52.324;5.122;2023-08-30T00:00:06;8.90;;;5.68;;
67274;SDS011;55463;52.324;5.122;2023-08-30T00:02:32;8.35;;;5.78;;
67274;SDS011;55463;52.324;5.122;2023-08-30T00:04:58;9.02;;;5.32;;
67274;SDS011;55463;52.324;5.122;2023-08-30T00:07:24;6.90;;;5.25;;
67274;SDS011;55463;52.324;5.122;2023-08-30T00:09:50;7.32;;;5.20;;
67274;SDS011;55463;52.324;5.122;2023-08-30T00:12:15;7.75;;;5.85;;
67274;SDS011;55463;52.324;5.122;2023-08-30T00:14:41;7.70;;;5.03;;
67274;SDS011;55463;52.324;5.122;2023-08-30T00:17:06;7.70;;;5.63;;
67274;SDS011;55463;52.324;5.122;2023-08-30T00:19:32;8.65;;;5.32;;
67274;SDS011;55463;52.324;5.122;2023-08-30T00:21:57;5.93;;;5.07;;
67274;SDS011;55463;52.324;5.122;2023-08-30T00:24:23;8.82;;;5.57;;
67274;SDS011;55463;52.324;5.122;2023-08-30T00:26:48;7.85;;;5.10;;
67274;SDS011;55463;52.324;5.122;2023-08-30T00:29:13;9.05;;;5.07;;
67274;SDS011;55463;52.324;5.122;2023-08-30T00:31:39;7.53;;;5.28;;
67274;SDS011;55463;52.324;5.122;2023-08-30T00:34:04;6.93;;;4.93;;
67274;SDS011;55463;52.324;5.122;2023-08-30T00:36:30;9.60;;;5.40;;
67274;SDS011;55463;52.324;5.122;2023-08-30T00:38:55;7.70;;;5.30;;
67274;SDS011;55463;52.324;5.122;2023-08-30T00:41:20;7.80;;;5.50;;
67274;SDS011;55463;52.324;5.122;2023-08-30T00:43:46;7.97;;;5.38;;
67274;SDS011;55463;52.324;5.122;2023-08-30T00:46:11;8.32;;;5.60;;
67274;SDS011;55463;52.324;5.122;2023-08-30T00:48:40;8.73;;;5.55;;
67274;SDS011;55463;52.324;5.122;2023-08-30T00:51:05;6.78;;;5.68;;
67274;SDS011;55463;52.324;5.122;2023-08-30T00:53:31;7.07;;;5.35;;
67274;SDS011;55463;52.324;5.122;2023-08-30T00:55:57;9.18;;;5.95;;
67274;SDS011;55463;52.324;5.122;2023-08-30T00:58:22;6.50;;;5.22;;
67274;SDS011;55463;52.324;5.122;2023-08-30T01:00:47;9.05;;;6.13;;
67274;SDS011;55463;52.324;5.122;2023-08-30T01:03:13;10.77;;;5.47;;
67274;SDS011;55463;52.324;5.122;2023-08-30T01:05:38;8.50;;;5.63;;
67274;SDS011;55463;52.324;5.122;2023-08-30T01:08:04;8.20;;;5.93;;
67274;SDS011;55463;52.324;5.122;2023-08-30T01:10:43;8.70;;;5.63;;
67274;SDS011;55463;52.324;5.122;2023-08-30T01:13:24;7.57;;;5.63;;
67274;SDS011;55463;52.324;5.122;2023-08-30T01:18:22;7.13;;;5.78;;
67274;SDS011;55463;52.324;5.122;2023-08-30T01:20:51;11.80;;;5.45;;
67274;SDS011;55463;52.324;5.122;2023-08-30T01:23:29;9.45;;;5.80;;
67274;SDS011;55463;52.324;5.122;2023-08-30T01:26:26;7.80;;;5.60;;
67274;SDS011;55463;52.324;5.122;2023-08-30T01:31:19;7.20;;;5.40;;
67274;SDS011;55463;52.324;5.122;2023-08-30T01:33:46;8.65;;;5.60;;
67274;SDS011;55463;52.324;5.122;2023-08-30T01:36:13;9.43;;;5.90;;
67274;SDS011;55463;52.324;5.122;2023-08-30T01:38:39;8.30;;;5.63;;
67274;SDS011;55463;52.324;5.122;2023-08-30T01:41:05;9.02;;;6.40;;
67274;SDS011;55463;52.324;5.122;2023-08-30T01:43:31;11.18;;;6.32;;
67274;SDS011;55463;52.324;5.122;2023-08-30T01:45:57;11.13;;;6.82;;
67274;SDS011;55463;52.324;5.122;2023-08-30T01:48:25;8.93;;;6.15;;
67274;SDS011;55463;52.324;5.122;2023-08-30T01:50:52;8.57;;;6.28;;
67274;SDS011;55463;52.324;5.122;2023-08-30T01:53:23;10.00;;;6.50;;
67274;SDS011;55463;52.324;5.122;2023-08-30T01:55:49;8.85;;;5.88;;
67274;SDS011;55463;52.324;5.122;2023-08-30T01:58:14;8.07;;;5.80;;
67274;SDS011;55463;52.324;5.122;2023-08-30T02:00:40;8.57;;;6.05;;
67274;SDS011;55463;52.324;5.122;2023-08-30T02:03:12;7.75;;;5.88;;
67274;SDS011;55463;52.324;5.122;2023-08-30T02:05:45;11.27;;;6.20;;
67274;SDS011;55463;52.324;5.122;2023-08-30T02:08:18;8.02;;;6.10;;
67274;SDS011;55463;52.324;5.122;2023-08-30T02:10:56;8.18;;;5.88;;
67274;SDS011;55463;52.324;5.122;2023-08-30T02:13:28;8.68;;;6.05;;
67274;SDS011;55463;52.324;5.122;2023-08-30T02:15:55;12.13;;;6.38;;
67274;SDS011;55463;52.324;5.122;2023-08-30T02:18:23;7.93;;;6.13;;
67274;SDS011;55463;52.324;5.122;2023-08-30T02:20:50;10.55;;;6.28;;
67274;SDS011;55463;52.324;5.122;2023-08-30T02:23:15;8.07;;;6.05;;
67274;SDS011;55463;52.324;5.122;2023-08-30T02:25:41;6.90;;;5.70;;
67274;SDS011;55463;52.324;5.122;2023-08-30T02:28:06;10.43;;;6.47;;
67274;SDS011;55463;52.324;5.122;2023-08-30T02:30:32;11.73;;;6.00;;
67274;SDS011;55463;52.324;5.122;2023-08-30T02:32:57;15.43;;;6.60;;
67274;SDS011;55463;52.324;5.122;2023-08-30T02:35:22;10.35;;;7.25;;
67274;SDS011;55463;52.324;5.122;2023-08-30T02:37:48;13.50;;;6.97;;
67274;SDS011;55463;52.324;5.122;2023-08-30T02:40:13;10.55;;;7.38;;
67274;SDS011;55463;52.324;5.122;2023-08-30T02:42:39;8.50;;;6.63;;
67274;SDS011;55463;52.324;5.122;2023-08-30T02:45:04;17.23;;;7.78;;
67274;SDS011;55463;52.324;5.122;2023-08-30T02:47:30;12.07;;;7.32;;
67274;SDS011;55463;52.324;5.122;2023-08-30T02:49:55;8.93;;;6.53;;
67274;SDS011;55463;52.324;5.122;2023-08-30T02:52:21;11.60;;;7.70;;
67274;SDS011;55463;52.324;5.122;2023-08-30T02:54:46;12.48;;;7.03;;
67274;SDS011;55463;52.324;5.122;2023-08-30T02:57:11;11.07;;;7.57;;
67274;SDS011;55463;52.324;5.122;2023-08-30T02:59:37;12.27;;;7.47;;
67274;SDS011;55463;52.324;5.122;2023-08-30T03:02:02;11.48;;;7.95;;
67274;SDS011;55463;52.324;5.122;2023-08-30T03:04:27;11.07;;;7.80;;
67274;SDS011;55463;52.324;5.122;2023-08-30T03:06:53;13.13;;;8.02;;
67274;SDS011;55463;52.324;5.122;2023-08-30T03:09:18;13.02;;;8.07;;
67274;SDS011;55463;52.324;5.122;2023-08-30T03:11:44;20.92;;;8.60;;
67274;SDS011;55463;52.324;5.122;2023-08-30T03:14:10;13.38;;;7.97;;
67274;SDS011;55463;52.324;5.122;2023-08-30T03:16:35;17.52;;;9.35;;
67274;SDS011;55463;52.324;5.122;2023-08-30T03:19:01;13.35;;;8.40;;
67274;SDS011;55463;52.324;5.122;2023-08-30T03:21:27;14.57;;;7.95;;
67274;SDS011;55463;52.324;5.122;2023-08-30T03:23:53;15.23;;;8.60;;
67274;SDS011;55463;52.324;5.122;2023-08-30T03:26:18;13.20;;;8.48;;
67274;SDS011;55463;52.324;5.122;2023-08-30T03:28:43;13.52;;;8.38;;
67274;SDS011;55463;52.324;5.122;2023-08-30T03:33:41;11.63;;;8.30;;
67274;SDS011;55463;52.324;5.122;2023-08-30T03:36:09;13.70;;;8.60;;
67274;SDS011;55463;52.324;5.122;2023-08-30T03:38:36;14.20;;;8.20;;
67274;SDS011;55463;52.324;5.122;2023-08-30T03:41:02;14.57;;;8.27;;
67274;SDS011;55463;52.324;5.122;2023-08-30T03:43:30;11.85;;;8.60;;
67274;SDS011;55463;52.324;5.122;2023-08-30T03:45:58;14.05;;;8.05;;
67274;SDS011;55463;52.324;5.122;2023-08-30T03:48:27;11.45;;;8.07;;
67274;SDS011;55463;52.324;5.122;2023-08-30T03:50:54;12.63;;;8.25;;
67274;SDS011;55463;52.324;5.122;2023-08-30T03:53:20;11.77;;;8.07;;
67274;SDS011;55463;52.324;5.122;2023-08-30T03:55:45;12.95;;;8.27;;
67274;SDS011;55463;52.324;5.122;2023-08-30T03:58:11;12.65;;;8.52;;
67274;SDS011;55463;52.324;5.122;2023-08-30T04:00:36;12.85;;;8.07;;
67274;SDS011;55463;52.324;5.122;2023-08-30T04:03:02;12.75;;;8.20;;
67274;SDS011;55463;52.324;5.122;2023-08-30T04:05:32;12.30;;;8.18;;
67274;SDS011;55463;52.324;5.122;2023-08-30T04:07:58;12.97;;;8.50;;
67274;SDS011;55463;52.324;5.122;2023-08-30T04:10:24;15.73;;;8.85;;
67274;SDS011;55463;52.324;5.122;2023-08-30T04:12:49;15.23;;;8.75;;
67274;SDS011;55463;52.324;5.122;2023-08-30T04:15:14;13.27;;;8.00;;
67274;SDS011;55463;52.324;5.122;2023-08-30T04:17:40;13.50;;;7.57;;
67274;SDS011;55463;52.324;5.122;2023-08-30T04:20:06;13.13;;;9.25;;
67274;SDS011;55463;52.324;5.122;2023-08-30T04:22:31;10.88;;;7.97;;
67274;SDS011;55463;52.324;5.122;2023-08-30T04:24:59;11.25;;;7.85;;
67274;SDS011;55463;52.324;5.122;2023-08-30T04:27:25;11.77;;;7.30;;
67274;SDS011;55463;52.324;5.122;2023-08-30T04:29:51;12.02;;;8.32;;
67274;SDS011;55463;52.324;5.122;2023-08-30T04:32:17;10.02;;;7.57;;
67274;SDS011;55463;52.324;5.122;2023-08-30T04:34:43;14.60;;;8.25;;
67274;SDS011;55463;52.324;5.122;2023-08-30T04:37:08;12.02;;;7.47;;
67274;SDS011;55463;52.324;5.122;2023-08-30T04:39:34;13.93;;;7.93;;
67274;SDS011;55463;52.324;5.122;2023-08-30T04:41:59;14.60;;;8.23;;
67274;SDS011;55463;52.324;5.122;2023-08-30T04:44:24;13.85;;;8.88;;
67274;SDS011;55463;52.324;5.122;2023-08-30T04:46:52;12.20;;;7.95;;
67274;SDS011;55463;52.324;5.122;2023-08-30T04:49:18;21.40;;;8.60;;
67274;SDS011;55463;52.324;5.122;2023-08-30T04:51:44;9.75;;;7.20;;
67274;SDS011;55463;52.324;5.122;2023-08-30T04:54:09;15.23;;;7.80;;
67274;SDS011;55463;52.324;5.122;2023-08-30T04:56:35;11.48;;;7.65;;
67274;SDS011;55463;52.324;5.122;2023-08-30T04:59:00;10.55;;;7.53;;
67274;SDS011;55463;52.324;5.122;2023-08-30T05:01:28;13.32;;;7.22;;
67274;SDS011;55463;52.324;5.122;2023-08-30T05:03:54;13.77;;;7.25;;
67274;SDS011;55463;52.324;5.122;2023-08-30T05:06:20;14.73;;;8.23;;
67274;SDS011;55463;52.324;5.122;2023-08-30T05:08:45;11.25;;;7.55;;
67274;SDS011;55463;52.324;5.122;2023-08-30T05:11:10;15.30;;;8.13;;
67274;SDS011;55463;52.324;5.122;2023-08-30T05:13:36;13.68;;;8.10;;
67274;SDS011;55463;52.324;5.122;2023-08-30T05:16:01;11.60;;;7.78;;
67274;SDS011;55463;52.324;5.122;2023-08-30T05:18:27;14.98;;;8.35;;
67274;SDS011;55463;52.324;5.122;2023-08-30T05:20:52;11.35;;;7.93;;
67274;SDS011;55463;52.324;5.122;2023-08-30T05:23:18;16.67;;;8.43;;
67274;SDS011;55463;52.324;5.122;2023-08-30T05:25:43;11.25;;;8.68;;
67274;SDS011;55463;52.324;5.122;2023-08-30T05:28:08;11.75;;;7.70;;
67274;SDS011;55463;52.324;5.122;2023-08-30T05:30:34;12.95;;;8.07;;
67274;SDS011;55463;52.324;5.122;2023-08-30T05:32:59;11.45;;;7.80;;
67274;SDS011;55463;52.324;5.122;2023-08-30T05:35:24;15.95;;;7.88;;
67274;SDS011;55463;52.324;5.122;2023-08-30T05:37:50;13.73;;;7.53;;
67274;SDS011;55463;52.324;5.122;2023-08-30T05:40:15;12.98;;;7.70;;
67274;SDS011;55463;52.324;5.122;2023-08-30T05:42:42;9.80;;;6.82;;
67274;SDS011;55463;52.324;5.122;2023-08-30T05:45:07;10.73;;;7.50;;
67274;SDS011;55463;52.324;5.122;2023-08-30T05:47:33;12.77;;;7.38;;
67274;SDS011;55463;52.324;5.122;2023-08-30T05:49:58;10.30;;;7.00;;
67274;SDS011;55463;52.324;5.122;2023-08-30T05:52:24;14.43;;;7.80;;
67274;SDS011;55463;52.324;5.122;2023-08-30T05:54:50;11.15;;;7.70;;
67274;SDS011;55463;52.324;5.122;2023-08-30T05:57:16;12.02;;;7.60;;
67274;SDS011;55463;52.324;5.122;2023-08-30T05:59:41;12.68;;;7.93;;
67274;SDS011;55463;52.324;5.122;2023-08-30T06:02:06;10.75;;;7.40;;
67274;SDS011;55463;52.324;5.122;2023-08-30T06:04:32;11.70;;;7.65;;
67274;SDS011;55463;52.324;5.122;2023-08-30T06:06:57;12.30;;;8.02;;
67274;SDS011;55463;52.324;5.122;2023-08-30T06:09:22;11.48;;;8.43;;
67274;SDS011;55463;52.324;5.122;2023-08-30T06:11:48;12.93;;;7.15;;
67274;SDS011;55463;52.324;5.122;2023-08-30T06:14:14;11.65;;;7.97;;
67274;SDS011;55463;52.324;5.122;2023-08-30T06:16:39;13.95;;;7.90;;
67274;SDS011;55463;52.324;5.122;2023-08-30T06:19:08;16.60;;;8.60;;
67274;SDS011;55463;52.324;5.122;2023-08-30T06:21:34;14.27;;;8.52;;
67274;SDS011;55463;52.324;5.122;2023-08-30T06:23:59;13.82;;;8.45;;
67274;SDS011;55463;52.324;5.122;2023-08-30T06:26:25;12.32;;;8.70;;
67274;SDS011;55463;52.324;5.122;2023-08-30T06:28:50;16.00;;;9.07;;
67274;SDS011;55463;52.324;5.122;2023-08-30T06:31:16;15.05;;;9.65;;
67274;SDS011;55463;52.324;5.122;2023-08-30T06:33:41;15.68;;;9.05;;
67274;SDS011;55463;52.324;5.122;2023-08-30T06:36:07;13.98;;;8.27;;
67274;SDS011;55463;52.324;5.122;2023-08-30T06:38:32;15.18;;;9.40;;
67274;SDS011;55463;52.324;5.122;2023-08-30T06:40:58;14.85;;;9.38;;
67274;SDS011;55463;52.324;5.122;2023-08-30T06:43:23;14.52;;;8.85;;
67274;SDS011;55463;52.324;5.122;2023-08-30T06:45:49;21.25;;;10.30;;
67274;SDS011;55463;52.324;5.122;2023-08-30T06:48:14;16.55;;;9.32;;
67274;SDS011;55463;52.324;5.122;2023-08-30T06:50:39;19.95;;;9.25;;
67274;SDS011;55463;52.324;5.122;2023-08-30T06:53:05;17.55;;;9.68;;
67274;SDS011;55463;52.324;5.122;2023-08-30T06:55:30;16.08;;;9.45;;
67274;SDS011;55463;52.324;5.122;2023-08-30T06:57:57;22.75;;;8.98;;
67274;SDS011;55463;52.324;5.122;2023-08-30T07:00:22;19.20;;;9.98;;
67274;SDS011;55463;52.324;5.122;2023-08-30T07:02:47;18.27;;;10.00;;
67274;SDS011;55463;52.324;5.122;2023-08-30T07:05:13;19.23;;;10.25;;
67274;SDS011;55463;52.324;5.122;2023-08-30T07:07:38;17.52;;;10.00;;
67274;SDS011;55463;52.324;5.122;2023-08-30T07:10:04;16.60;;;10.43;;
67274;SDS011;55463;52.324;5.122;2023-08-30T07:12:30;21.60;;;10.70;;
67274;SDS011;55463;52.324;5.122;2023-08-30T07:14:55;15.77;;;9.95;;
67274;SDS011;55463;52.324;5.122;2023-08-30T07:17:21;18.05;;;9.65;;
67274;SDS011;55463;52.324;5.122;2023-08-30T07:19:46;16.02;;;10.45;;
67274;SDS011;55463;52.324;5.122;2023-08-30T07:22:11;19.17;;;10.82;;
67274;SDS011;55463;52.324;5.122;2023-08-30T07:24:37;17.52;;;10.00;;
67274;SDS011;55463;52.324;5.122;2023-08-30T07:27:02;17.88;;;10.30;;
67274;SDS011;55463;52.324;5.122;2023-08-30T07:29:28;16.98;;;10.18;;
67274;SDS011;55463;52.324;5.122;2023-08-30T07:31:53;15.25;;;9.50;;
67274;SDS011;55463;52.324;5.122;2023-08-30T07:34:19;15.50;;;8.90;;
67274;SDS011;55463;52.324;5.122;2023-08-30T07:36:45;16.55;;;9.65;;
67274;SDS011;55463;52.324;5.122;2023-08-30T07:39:10;18.05;;;9.43;;
67274;SDS011;55463;52.324;5.122;2023-08-30T07:41:36;18.17;;;9.52;;
67274;SDS011;55463;52.324;5.122;2023-08-30T07:44:01;17.80;;;8.30;;
67274;SDS011;55463;52.324;5.122;2023-08-30T07:46:26;16.00;;;9.20;;
67274;SDS011;55463;52.324;5.122;2023-08-30T07:48:53;12.88;;;8.20;;
67274;SDS011;55463;52.324;5.122;2023-08-30T07:51:18;13.70;;;8.25;;
67274;SDS011;55463;52.324;5.122;2023-08-30T07:53:43;13.00;;;7.97;;
67274;SDS011;55463;52.324;5.122;2023-08-30T07:56:09;12.93;;;7.50;;
67274;SDS011;55463;52.324;5.122;2023-08-30T07:58:34;11.82;;;7.68;;
67274;SDS011;55463;52.324;5.122;2023-08-30T08:01:00;12.93;;;7.40;;
67274;SDS011;55463;52.324;5.122;2023-08-30T08:03:25;13.52;;;7.72;;
67274;SDS011;55463;52.324;5.122;2023-08-30T08:05:50;12.88;;;7.57;;
67274;SDS011;55463;52.324;5.122;2023-08-30T08:08:16;11.13;;;6.53;;
67274;SDS011;55463;52.324;5.122;2023-08-30T08:10:42;11.55;;;7.20;;
67274;SDS011;55463;52.324;5.122;2023-08-30T08:13:08;13.65;;;7.78;;
67274;SDS011;55463;52.324;5.122;2023-08-30T08:15:33;10.98;;;7.10;;
67274;SDS011;55463;52.324;5.122;2023-08-30T08:17:59;11.15;;;7.60;;
67274;SDS011;55463;52.324;5.122;2023-08-30T08:20:25;11.05;;;7.10;;
67274;SDS011;55463;52.324;5.122;2023-08-30T08:22:51;9.73;;;7.03;;
67274;SDS011;55463;52.324;5.122;2023-08-30T08:25:17;11.85;;;7.03;;
67274;SDS011;55463;52.324;5.122;2023-08-30T08:27:42;9.05;;;6.15;;
67274;SDS011;55463;52.324;5.122;2023-08-30T08:30:08;7.40;;;6.20;;
67274;SDS011;55463;52.324;5.122;2023-08-30T08:32:34;8.50;;;6.07;;
67274;SDS011;55463;52.324;5.122;2023-08-30T08:35:00;11.27;;;6.63;;
67274;SDS011;55463;52.324;5.122;2023-08-30T08:37:26;6.72;;;5.03;;
67274;SDS011;55463;52.324;5.122;2023-08-30T08:39:51;7.93;;;5.38;;
67274;SDS011;55463;52.324;5.122;2023-08-30T08:42:17;8.38;;;5.35;;
67274;SDS011;55463;52.324;5.122;2023-08-30T08:44:45;9.02;;;5.15;;
67274;SDS011;55463;52.324;5.122;2023-08-30T08:47:11;6.82;;;4.60;;
67274;SDS011;55463;52.324;5.122;2023-08-30T08:49:37;5.55;;;4.55;;
67274;SDS011;55463;52.324;5.122;2023-08-30T08:52:03;5.60;;;4.30;;
67274;SDS011;55463;52.324;5.122;2023-08-30T08:54:29;6.50;;;4.30;;
67274;SDS011;55463;52.324;5.122;2023-08-30T08:56:54;6.32;;;4.50;;
67274;SDS011;55463;52.324;5.122;2023-08-30T08:59:21;5.57;;;4.28;;
67274;SDS011;55463;52.324;5.122;2023-08-30T09:01:46;7.40;;;5.07;;
67274;SDS011;55463;52.324;5.122;2023-08-30T09:04:13;6.53;;;4.30;;
67274;SDS011;55463;52.324;5.122;2023-08-30T09:06:39;8.60;;;4.97;;
67274;SDS011;55463;52.324;5.122;2023-08-30T09:09:05;8.18;;;4.80;;
67274;SDS011;55463;52.324;5.122;2023-08-30T09:11:31;6.88;;;4.90;;
67274;SDS011;55463;52.324;5.122;2023-08-30T09:13:57;5.80;;;4.57;;
67274;SDS011;55463;52.324;5.122;2023-08-30T09:16:23;5.20;;;4.18;;
67274;SDS011;55463;52.324;5.122;2023-08-30T09:18:58;7.72;;;4.97;;
67274;SDS011;55463;52.324;5.122;2023-08-30T09:21:28;5.03;;;4.13;;
67274;SDS011;55463;52.324;5.122;2023-08-30T09:24:11;5.00;;;4.43;;
67274;SDS011;55463;52.324;5.122;2023-08-30T09:26:37;6.47;;;4.45;;
67274;SDS011;55463;52.324;5.122;2023-08-30T09:29:04;9.20;;;4.90;;
67274;SDS011;55463;52.324;5.122;2023-08-30T09:31:36;7.40;;;5.00;;
67274;SDS011;55463;52.324;5.122;2023-08-30T09:34:03;6.68;;;4.70;;
67274;SDS011;55463;52.324;5.122;2023-08-30T09:36:33;8.40;;;5.03;;
67274;SDS011;55463;52.324;5.122;2023-08-30T09:38:59;5.63;;;4.97;;
67274;SDS011;55463;52.324;5.122;2023-08-30T09:41:27;6.47;;;4.65;;
67274;SDS011;55463;52.324;5.122;2023-08-30T09:43:53;6.80;;;5.25;;
67274;SDS011;55463;52.324;5.122;2023-08-30T09:46:19;8.60;;;5.93;;
67274;SDS011;55463;52.324;5.122;2023-08-30T09:48:45;7.28;;;5.63;;
67274;SDS011;55463;52.324;5.122;2023-08-30T09:51:10;9.00;;;5.80;;
67274;SDS011;55463;52.324;5.122;2023-08-30T09:53:37;6.63;;;5.60;;
67274;SDS011;55463;52.324;5.122;2023-08-30T09:56:09;8.77;;;6.30;;
67274;SDS011;55463;52.324;5.122;2023-08-30T09:58:38;10.35;;;6.63;;
67274;SDS011;55463;52.324;5.122;2023-08-30T10:01:05;8.60;;;6.55;;
67274;SDS011;55463;52.324;5.122;2023-08-30T10:03:31;7.80;;;6.15;;
67274;SDS011;55463;52.324;5.122;2023-08-30T10:05:59;6.30;;;5.40;;
67274;SDS011;55463;52.324;5.122;2023-08-30T10:08:28;4.70;;;4.20;;
67274;SDS011;55463;52.324;5.122;2023-08-30T10:10:57;5.88;;;4.03;;
67274;SDS011;55463;52.324;5.122;2023-08-30T10:13:24;4.57;;;3.78;;
67274;SDS011;55463;52.324;5.122;2023-08-30T10:15:50;5.25;;;3.50;;
67274;SDS011;55463;52.324;5.122;2023-08-30T10:18:21;5.22;;;3.83;;
67274;SDS011;55463;52.324;5.122;2023-08-30T10:20:51;5.65;;;3.05;;
67274;SDS011;55463;52.324;5.122;2023-08-30T10:23:19;7.53;;;3.00;;
67274;SDS011;55463;52.324;5.122;2023-08-30T10:25:46;5.20;;;3.10;;
67274;SDS011;55463;52.324;5.122;2023-08-30T10:28:14;9.80;;;3.05;;
67274;SDS011;55463;52.324;5.122;2023-08-30T10:30:41;6.18;;;2.85;;
67274;SDS011;55463;52.324;5.122;2023-08-30T10:33:13;6.05;;;2.90;;
67274;SDS011;55463;52.324;5.122;2023-08-30T10:35:49;5.30;;;2.63;;
67274;SDS011;55463;52.324;5.122;2023-08-30T10:38:25;8.10;;;2.75;;
67274;SDS011;55463;52.324;5.122;2023-08-30T10:40:54;4.85;;;2.40;;
67274;SDS011;55463;52.324;5.122;2023-08-30T10:43:30;8.70;;;2.40;;
67274;SDS011;55463;52.324;5.122;2023-08-30T10:46:01;3.90;;;2.55;;
67274;SDS011;55463;52.324;5.122;2023-08-30T10:48:38;2.88;;;2.15;;
67274;SDS011;55463;52.324;5.122;2023-08-30T10:51:06;6.97;;;2.30;;
67274;SDS011;55463;52.324;5.122;2023-08-30T10:53:54;5.25;;;2.55;;
67274;SDS011;55463;52.324;5.122;2023-08-30T10:56:26;8.27;;;2.72;;
67274;SDS011;55463;52.324;5.122;2023-08-30T10:58:53;6.47;;;2.83;;
67274;SDS011;55463;52.324;5.122;2023-08-30T11:01:18;6.40;;;2.58;;
67274;SDS011;55463;52.324;5.122;2023-08-30T11:03:44;7.18;;;2.58;;
67274;SDS011;55463;52.324;5.122;2023-08-30T11:06:13;7.13;;;2.58;;
67274;SDS011;55463;52.324;5.122;2023-08-30T11:08:39;7.15;;;2.50;;
67274;SDS011;55463;52.324;5.122;2023-08-30T11:11:04;7.28;;;2.30;;
67274;SDS011;55463;52.324;5.122;2023-08-30T11:13:32;4.60;;;2.20;;
67274;SDS011;55463;52.324;5.122;2023-08-30T11:16:00;6.63;;;2.55;;
67274;SDS011;55463;52.324;5.122;2023-08-30T11:18:28;11.07;;;2.25;;
67274;SDS011;55463;52.324;5.122;2023-08-30T11:20:58;4.47;;;2.00;;
67274;SDS011;55463;52.324;5.122;2023-08-30T11:23:26;7.88;;;2.40;;
67274;SDS011;55463;52.324;5.122;2023-08-30T11:25:51;6.05;;;2.20;;
67274;SDS011;55463;52.324;5.122;2023-08-30T11:28:21;7.82;;;2.55;;
67274;SDS011;55463;52.324;5.122;2023-08-30T11:30:48;9.32;;;2.65;;
67274;SDS011;55463;52.324;5.122;2023-08-30T11:33:16;10.98;;;2.17;;
67274;SDS011;55463;52.324;5.122;2023-08-30T11:35:42;8.93;;;2.15;;
67274;SDS011;55463;52.324;5.122;2023-08-30T11:38:08;8.70;;;2.58;;
67274;SDS011;55463;52.324;5.122;2023-08-30T11:40:34;6.13;;;2.30;;
67274;SDS011;55463;52.324;5.122;2023-08-30T11:43:00;8.18;;;2.50;;
67274;SDS011;55463;52.324;5.122;2023-08-30T11:45:27;7.80;;;2.65;;
67274;SDS011;55463;52.324;5.122;2023-08-30T11:47:57;11.18;;;2.10;;
67274;SDS011;55463;52.324;5.122;2023-08-30T11:50:24;10.27;;;2.50;;
67274;SDS011;55463;52.324;5.122;2023-08-30T11:52:49;11.25;;;2.58;;
67274;SDS011;55463;52.324;5.122;2023-08-30T11:55:15;8.50;;;2.38;;
67274;SDS011;55463;52.324;5.122;2023-08-30T11:57:43;10.98;;;2.40;;
67274;SDS011;55463;52.324;5.122;2023-08-30T12:00:09;10.00;;;2.47;;
67274;SDS011;55463;52.324;5.122;2023-08-30T12:02:35;7.90;;;2.63;;
67274;SDS011;55463;52.324;5.122;2023-08-30T12:05:01;8.40;;;2.55;;
67274;SDS011;55463;52.324;5.122;2023-08-30T12:07:26;10.65;;;2.85;;
67274;SDS011;55463;52.324;5.122;2023-08-30T12:09:52;6.53;;;2.17;;
67274;SDS011;55463;52.324;5.122;2023-08-30T12:12:18;7.22;;;2.38;;
67274;SDS011;55463;52.324;5.122;2023-08-30T12:14:43;6.40;;;2.75;;
67274;SDS011;55463;52.324;5.122;2023-08-30T12:17:09;6.45;;;2.70;;
67274;SDS011;55463;52.324;5.122;2023-08-30T12:19:37;8.07;;;2.55;;
67274;SDS011;55463;52.324;5.122;2023-08-30T12:22:05;11.15;;;2.72;;
67274;SDS011;55463;52.324;5.122;2023-08-30T12:24:40;9.23;;;3.10;;
67274;SDS011;55463;52.324;5.122;2023-08-30T12:27:09;12.05;;;2.88;;
67274;SDS011;55463;52.324;5.122;2023-08-30T12:29:35;9.27;;;2.75;;
67274;SDS011;55463;52.324;5.122;2023-08-30T12:32:01;11.10;;;2.63;;
67274;SDS011;55463;52.324;5.122;2023-08-30T12:34:26;12.43;;;2.50;;
67274;SDS011;55463;52.324;5.122;2023-08-30T12:36:51;7.50;;;2.28;;
67274;SDS011;55463;52.324;5.122;2023-08-30T12:39:17;8.27;;;2.38;;
67274;SDS011;55463;52.324;5.122;2023-08-30T12:41:42;7.65;;;2.20;;
67274;SDS011;55463;52.324;5.122;2023-08-30T12:44:08;7.28;;;2.30;;
67274;SDS011;55463;52.324;5.122;2023-08-30T12:46:33;9.52;;;2.10;;
67274;SDS011;55463;52.324;5.122;2023-08-30T12:48:59;14.77;;;2.50;;
67274;SDS011;55463;52.324;5.122;2023-08-30T12:51:26;7.72;;;2.50;;
67274;SDS011;55463;52.324;5.122;2023-08-30T12:53:52;3.17;;;1.73;;
67274;SDS011;55463;52.324;5.122;2023-08-30T12:56:17;7.45;;;2.22;;
67274;SDS011;55463;52.324;5.122;2023-08-30T12:58:42;4.63;;;1.70;;
67274;SDS011;55463;52.324;5.122;2023-08-30T13:01:08;4.97;;;1.80;;
67274;SDS011;55463;52.324;5.122;2023-08-30T13:03:33;7.55;;;1.90;;
67274;SDS011;55463;52.324;5.122;2023-08-30T13:05:58;7.60;;;2.20;;
67274;SDS011;55463;52.324;5.122;2023-08-30T13:08:24;4.85;;;1.63;;
67274;SDS011;55463;52.324;5.122;2023-08-30T13:10:49;5.10;;;1.67;;
67274;SDS011;55463;52.324;5.122;2023-08-30T13:13:15;4.13;;;1.60;;
67274;SDS011;55463;52.324;5.122;2023-08-30T13:15:40;5.10;;;1.70;;
67274;SDS011;55463;52.324;5.122;2023-08-30T13:18:06;5.50;;;1.88;;
67274;SDS011;55463;52.324;5.122;2023-08-30T13:20:31;8.13;;;2.30;;
67274;SDS011;55463;52.324;5.122;2023-08-30T13:22:56;6.57;;;1.83;;
67274;SDS011;55463;52.324;5.122;2023-08-30T13:25:22;7.18;;;1.80;;
67274;SDS011;55463;52.324;5.122;2023-08-30T13:27:47;5.30;;;1.60;;
67274;SDS011;55463;52.324;5.122;2023-08-30T13:30:13;4.78;;;1.95;;
67274;SDS011;55463;52.324;5.122;2023-08-30T13:32:38;4.95;;;1.50;;
67274;SDS011;55463;52.324;5.122;2023-08-30T13:35:03;4.32;;;1.55;;
67274;SDS011;55463;52.324;5.122;2023-08-30T13:37:29;5.00;;;1.50;;
67274;SDS011;55463;52.324;5.122;2023-08-30T13:39:54;20.02;;;3.20;;
67274;SDS011;55463;52.324;5.122;2023-08-30T13:42:20;7.65;;;2.38;;
67274;SDS011;55463;52.324;5.122;2023-08-30T13:44:46;4.40;;;1.88;;
67274;SDS011;55463;52.324;5.122;2023-08-30T13:47:14;7.25;;;1.95;;
67274;SDS011;55463;52.324;5.122;2023-08-30T13:49:41;6.13;;;1.90;;
67274;SDS011;55463;52.324;5.122;2023-08-30T13:52:07;6.72;;;1.92;;
67274;SDS011;55463;52.324;5.122;2023-08-30T13:54:32;5.05;;;1.73;;
67274;SDS011;55463;52.324;5.122;2023-08-30T13:56:58;7.63;;;1.90;;
67274;SDS011;55463;52.324;5.122;2023-08-30T13:59:23;8.18;;;2.13;;
67274;SDS011;55463;52.324;5.122;2023-08-30T14:01:51;4.07;;;1.65;;
67274;SDS011;55463;52.324;5.122;2023-08-30T14:04:16;4.35;;;1.70;;
67274;SDS011;55463;52.324;5.122;2023-08-30T14:06:42;3.85;;;1.40;;
67274;SDS011;55463;52.324;5.122;2023-08-30T14:09:07;5.43;;;1.40;;
67274;SDS011;55463;52.324;5.122;2023-08-30T14:11:34;6.90;;;1.80;;
67274;SDS011;55463;52.324;5.122;2023-08-30T14:14:01;5.13;;;1.60;;
67274;SDS011;55463;52.324;5.122;2023-08-30T14:16:27;3.72;;;1.60;;
67274;SDS011;55463;52.324;5.122;2023-08-30T14:18:52;3.55;;;1.73;;
67274;SDS011;55463;52.324;5.122;2023-08-30T14:21:18;2.53;;;1.60;;
67274;SDS011;55463;52.324;5.122;2023-08-30T14:23:43;2.85;;;1.77;;
67274;SDS011;55463;52.324;5.122;2023-08-30T14:26:08;4.20;;;1.73;;
67274;SDS011;55463;52.324;5.122;2023-08-30T14:28:35;3.15;;;1.65;;
67274;SDS011;55463;52.324;5.122;2023-08-30T14:31:07;2.47;;;1.70;;
67274;SDS011;55463;52.324;5.122;2023-08-30T14:33:33;7.20;;;2.22;;
67274;SDS011;55463;52.324;5.122;2023-08-30T14:35:59;3.67;;;1.70;;
67274;SDS011;55463;52.324;5.122;2023-08-30T14:38:26;4.25;;;1.85;;
67274;SDS011;55463;52.324;5.122;2023-08-30T14:40:58;6.40;;;1.85;;
67274;SDS011;55463;52.324;5.122;2023-08-30T14:43:24;6.18;;;1.90;;